sensor_id;sensor_type;location;lat;lon;timestamp;P1;durP1;ratioP1;P2;durP2;ratioP2
40286;SDS011;25998;46.604;13.610;2023-03-23T00:01:13;19.77;;;16.27;;
40286;SDS011;25998;46.604;13.610;2023-03-23T00:04:29;19.77;;;17.33;;
40286;SDS011;25998;46.604;13.610;2023-03-23T00:07:40;20.25;;;16.80;;
40286;SDS011;25998;46.604;13.610;2023-03-23T00:10:55;20.13;;;16.88;;
40286;SDS011;25998;46.604;13.610;2023-03-23T00:14:09;20.08;;;17.05;;
40286;SDS011;25998;46.604;13.610;2023-03-23T00:17:23;22.85;;;16.83;;
40286;SDS011;25998;46.604;13.610;2023-03-23T00:20:34;22.05;;;17.77;;
40286;SDS011;25998;46.604;13.610;2023-03-23T00:23:51;22.33;;;19.30;;
40286;SDS011;25998;46.604;13.610;2023-03-23T00:27:02;25.10;;;19.73;;
40286;SDS011;25998;46.604;13.610;2023-03-23T00:30:13;23.38;;;18.73;;
40286;SDS011;25998;46.604;13.610;2023-03-23T00:33:25;21.10;;;17.77;;
40286;SDS011;25998;46.604;13.610;2023-03-23T00:36:37;21.73;;;17.60;;
40286;SDS011;25998;46.604;13.610;2023-03-23T00:39:52;19.70;;;17.60;;
40286;SDS011;25998;46.604;13.610;2023-03-23T00:43:07;22.50;;;17.45;;
40286;SDS011;25998;46.604;13.610;2023-03-23T00:46:18;23.17;;;17.30;;
40286;SDS011;25998;46.604;13.610;2023-03-23T00:49:30;21.17;;;17.42;;
40286;SDS011;25998;46.604;13.610;2023-03-23T00:52:44;18.83;;;16.83;;
40286;SDS011;25998;46.604;13.610;2023-03-23T00:55:55;23.80;;;18.83;;
40286;SDS011;25998;46.604;13.610;2023-03-23T00:59:06;19.83;;;17.15;;
40286;SDS011;25998;46.604;13.610;2023-03-23T01:02:17;19.60;;;16.80;;
40286;SDS011;25998;46.604;13.610;2023-03-23T01:05:29;22.92;;;17.98;;
40286;SDS011;25998;46.604;13.610;2023-03-23T01:08:44;24.50;;;17.55;;
40286;SDS011;25998;46.604;13.610;2023-03-23T01:11:55;22.35;;;19.25;;
40286;SDS011;25998;46.604;13.610;2023-03-23T01:15:06;23.05;;;18.23;;
40286;SDS011;25998;46.604;13.610;2023-03-23T01:18:17;21.42;;;18.48;;
40286;SDS011;25998;46.604;13.610;2023-03-23T01:21:28;21.90;;;18.80;;
40286;SDS011;25998;46.604;13.610;2023-03-23T01:24:39;22.13;;;18.05;;
40286;SDS011;25998;46.604;13.610;2023-03-23T01:27:50;24.80;;;19.30;;
40286;SDS011;25998;46.604;13.610;2023-03-23T01:31:05;22.17;;;18.80;;
40286;SDS011;25998;46.604;13.610;2023-03-23T01:34:18;20.73;;;17.25;;
40286;SDS011;25998;46.604;13.610;2023-03-23T01:37:30;24.35;;;18.73;;
40286;SDS011;25998;46.604;13.610;2023-03-23T01:40:41;26.08;;;19.15;;
40286;SDS011;25998;46.604;13.610;2023-03-23T01:43:57;21.63;;;18.38;;
40286;SDS011;25998;46.604;13.610;2023-03-23T01:47:14;22.58;;;19.77;;
40286;SDS011;25998;46.604;13.610;2023-03-23T01:50:26;20.88;;;18.52;;
40286;SDS011;25998;46.604;13.610;2023-03-23T01:53:43;23.05;;;20.52;;
40286;SDS011;25998;46.604;13.610;2023-03-23T01:56:58;20.50;;;18.40;;
40286;SDS011;25998;46.604;13.610;2023-03-23T02:00:12;25.00;;;18.17;;
40286;SDS011;25998;46.604;13.610;2023-03-23T02:03:27;18.85;;;16.85;;
40286;SDS011;25998;46.604;13.610;2023-03-23T02:06:39;22.80;;;17.13;;
40286;SDS011;25998;46.604;13.610;2023-03-23T02:09:50;20.00;;;17.85;;
40286;SDS011;25998;46.604;13.610;2023-03-23T02:13:02;23.10;;;19.88;;
40286;SDS011;25998;46.604;13.610;2023-03-23T02:16:37;20.38;;;18.27;;
40286;SDS011;25998;46.604;13.610;2023-03-23T02:27:56;20.58;;;17.85;;
40286;SDS011;25998;46.604;13.610;2023-03-23T02:35:08;24.15;;;19.95;;
40286;SDS011;25998;46.604;13.610;2023-03-23T02:38:32;24.25;;;18.40;;
40286;SDS011;25998;46.604;13.610;2023-03-23T02:45:30;22.10;;;19.02;;
40286;SDS011;25998;46.604;13.610;2023-03-23T02:48:44;21.63;;;19.27;;
40286;SDS011;25998;46.604;13.610;2023-03-23T02:51:58;24.27;;;20.42;;
40286;SDS011;25998;46.604;13.610;2023-03-23T02:55:11;24.40;;;20.50;;
40286;SDS011;25998;46.604;13.610;2023-03-23T02:58:24;24.30;;;20.77;;
40286;SDS011;25998;46.604;13.610;2023-03-23T03:05:11;34.00;;;20.33;;
40286;SDS011;25998;46.604;13.610;2023-03-23T03:08:37;21.27;;;18.85;;
40286;SDS011;25998;46.604;13.610;2023-03-23T03:12:30;25.95;;;20.13;;
40286;SDS011;25998;46.604;13.610;2023-03-23T03:16:00;22.70;;;19.20;;
40286;SDS011;25998;46.604;13.610;2023-03-23T03:19:33;24.10;;;20.05;;
40286;SDS011;25998;46.604;13.610;2023-03-23T03:22:48;24.13;;;19.70;;
40286;SDS011;25998;46.604;13.610;2023-03-23T03:26:03;30.77;;;21.58;;
40286;SDS011;25998;46.604;13.610;2023-03-23T03:29:20;26.35;;;21.42;;
40286;SDS011;25998;46.604;13.610;2023-03-23T03:32:41;28.52;;;20.90;;
40286;SDS011;25998;46.604;13.610;2023-03-23T03:36:00;31.92;;;20.65;;
40286;SDS011;25998;46.604;13.610;2023-03-23T03:39:13;25.60;;;20.92;;
40286;SDS011;25998;46.604;13.610;2023-03-23T03:42:26;26.10;;;22.83;;
40286;SDS011;25998;46.604;13.610;2023-03-23T03:45:36;24.13;;;20.65;;
40286;SDS011;25998;46.604;13.610;2023-03-23T03:48:47;28.60;;;19.67;;
40286;SDS011;25998;46.604;13.610;2023-03-23T03:52:01;24.30;;;20.23;;
40286;SDS011;25998;46.604;13.610;2023-03-23T03:55:12;25.20;;;21.08;;
40286;SDS011;25998;46.604;13.610;2023-03-23T03:58:23;29.17;;;21.02;;
40286;SDS011;25998;46.604;13.610;2023-03-23T04:01:36;30.98;;;20.85;;
40286;SDS011;25998;46.604;13.610;2023-03-23T04:04:48;23.35;;;18.85;;
40286;SDS011;25998;46.604;13.610;2023-03-23T04:08:03;25.45;;;21.15;;
40286;SDS011;25998;46.604;13.610;2023-03-23T04:11:15;26.42;;;21.02;;
40286;SDS011;25998;46.604;13.610;2023-03-23T04:14:26;25.38;;;20.75;;
40286;SDS011;25998;46.604;13.610;2023-03-23T04:17:36;28.20;;;21.35;;
40286;SDS011;25998;46.604;13.610;2023-03-23T04:20:48;23.45;;;18.00;;
40286;SDS011;25998;46.604;13.610;2023-03-23T04:23:59;27.58;;;20.77;;
40286;SDS011;25998;46.604;13.610;2023-03-23T04:27:11;28.50;;;20.42;;
40286;SDS011;25998;46.604;13.610;2023-03-23T04:30:23;22.08;;;19.10;;
40286;SDS011;25998;46.604;13.610;2023-03-23T04:33:37;25.30;;;19.77;;
40286;SDS011;25998;46.604;13.610;2023-03-23T04:36:50;22.65;;;19.50;;
40286;SDS011;25998;46.604;13.610;2023-03-23T04:40:01;31.85;;;20.73;;
40286;SDS011;25998;46.604;13.610;2023-03-23T04:43:18;26.70;;;20.13;;
40286;SDS011;25998;46.604;13.610;2023-03-23T04:46:31;26.90;;;18.85;;
40286;SDS011;25998;46.604;13.610;2023-03-23T04:49:42;22.63;;;19.38;;
40286;SDS011;25998;46.604;13.610;2023-03-23T04:52:53;26.42;;;20.98;;
40286;SDS011;25998;46.604;13.610;2023-03-23T04:56:06;24.65;;;19.50;;
40286;SDS011;25998;46.604;13.610;2023-03-23T04:59:18;30.98;;;20.92;;
40286;SDS011;25998;46.604;13.610;2023-03-23T05:02:28;29.67;;;19.95;;
40286;SDS011;25998;46.604;13.610;2023-03-23T05:05:40;26.10;;;19.27;;
40286;SDS011;25998;46.604;13.610;2023-03-23T05:08:51;24.27;;;20.08;;
40286;SDS011;25998;46.604;13.610;2023-03-23T05:12:09;21.52;;;18.52;;
40286;SDS011;25998;46.604;13.610;2023-03-23T05:15:20;27.00;;;19.15;;
40286;SDS011;25998;46.604;13.610;2023-03-23T05:18:31;23.52;;;19.77;;
40286;SDS011;25998;46.604;13.610;2023-03-23T05:21:42;28.17;;;19.92;;
40286;SDS011;25998;46.604;13.610;2023-03-23T05:24:54;29.27;;;20.60;;
40286;SDS011;25998;46.604;13.610;2023-03-23T05:28:06;42.40;;;22.55;;
40286;SDS011;25998;46.604;13.610;2023-03-23T05:31:18;31.30;;;21.98;;
40286;SDS011;25998;46.604;13.610;2023-03-23T05:34:29;32.28;;;20.05;;
40286;SDS011;25998;46.604;13.610;2023-03-23T05:37:42;29.35;;;19.48;;
40286;SDS011;25998;46.604;13.610;2023-03-23T05:40:57;24.60;;;19.67;;
40286;SDS011;25998;46.604;13.610;2023-03-23T05:44:11;27.40;;;18.00;;
40286;SDS011;25998;46.604;13.610;2023-03-23T05:47:23;26.50;;;17.65;;
40286;SDS011;25998;46.604;13.610;2023-03-23T05:50:35;49.55;;;20.58;;
40286;SDS011;25998;46.604;13.610;2023-03-23T05:53:46;23.58;;;18.38;;
40286;SDS011;25998;46.604;13.610;2023-03-23T05:56:58;35.50;;;19.90;;
40286;SDS011;25998;46.604;13.610;2023-03-23T06:00:09;31.98;;;19.20;;
40286;SDS011;25998;46.604;13.610;2023-03-23T06:03:23;28.73;;;17.95;;
40286;SDS011;25998;46.604;13.610;2023-03-23T06:06:34;23.27;;;17.33;;
40286;SDS011;25998;46.604;13.610;2023-03-23T06:09:46;26.08;;;16.67;;
40286;SDS011;25998;46.604;13.610;2023-03-23T06:12:56;30.13;;;17.92;;
40286;SDS011;25998;46.604;13.610;2023-03-23T06:16:07;39.40;;;18.80;;
40286;SDS011;25998;46.604;13.610;2023-03-23T06:19:19;34.22;;;17.88;;
40286;SDS011;25998;46.604;13.610;2023-03-23T06:22:30;32.00;;;18.98;;
40286;SDS011;25998;46.604;13.610;2023-03-23T06:25:41;36.00;;;18.55;;
40286;SDS011;25998;46.604;13.610;2023-03-23T06:28:52;32.40;;;17.92;;
40286;SDS011;25998;46.604;13.610;2023-03-23T06:32:03;35.50;;;18.25;;
40286;SDS011;25998;46.604;13.610;2023-03-23T06:35:15;31.55;;;16.90;;
40286;SDS011;25998;46.604;13.610;2023-03-23T06:38:26;30.58;;;16.08;;
40286;SDS011;25998;46.604;13.610;2023-03-23T06:41:37;33.65;;;17.60;;
40286;SDS011;25998;46.604;13.610;2023-03-23T06:44:48;33.42;;;17.92;;
40286;SDS011;25998;46.604;13.610;2023-03-23T06:47:58;43.58;;;16.88;;
40286;SDS011;25998;46.604;13.610;2023-03-23T06:51:09;32.38;;;18.13;;
40286;SDS011;25998;46.604;13.610;2023-03-23T06:54:20;26.48;;;16.23;;
40286;SDS011;25998;46.604;13.610;2023-03-23T06:57:31;25.83;;;16.73;;
40286;SDS011;25998;46.604;13.610;2023-03-23T07:00:42;26.77;;;15.68;;
40286;SDS011;25998;46.604;13.610;2023-03-23T07:03:54;27.85;;;17.27;;
40286;SDS011;25998;46.604;13.610;2023-03-23T07:07:07;23.75;;;17.70;;
40286;SDS011;25998;46.604;13.610;2023-03-23T07:10:19;27.60;;;19.50;;
40286;SDS011;25998;46.604;13.610;2023-03-23T07:13:31;21.77;;;19.48;;
40286;SDS011;25998;46.604;13.610;2023-03-23T07:16:42;24.13;;;19.25;;
40286;SDS011;25998;46.604;13.610;2023-03-23T07:19:53;25.02;;;19.33;;
40286;SDS011;25998;46.604;13.610;2023-03-23T07:23:04;28.17;;;19.65;;
40286;SDS011;25998;46.604;13.610;2023-03-23T07:26:17;25.48;;;20.08;;
40286;SDS011;25998;46.604;13.610;2023-03-23T07:29:28;23.08;;;18.77;;
40286;SDS011;25998;46.604;13.610;2023-03-23T07:32:40;24.13;;;17.45;;
40286;SDS011;25998;46.604;13.610;2023-03-23T07:35:51;22.73;;;16.98;;
40286;SDS011;25998;46.604;13.610;2023-03-23T07:39:02;32.17;;;19.35;;
40286;SDS011;25998;46.604;13.610;2023-03-23T07:42:15;46.95;;;19.70;;
40286;SDS011;25998;46.604;13.610;2023-03-23T07:45:26;20.05;;;17.05;;
40286;SDS011;25998;46.604;13.610;2023-03-23T07:48:38;22.17;;;16.15;;
40286;SDS011;25998;46.604;13.610;2023-03-23T07:51:49;42.15;;;20.88;;
40286;SDS011;25998;46.604;13.610;2023-03-23T07:55:00;22.13;;;15.93;;
40286;SDS011;25998;46.604;13.610;2023-03-23T07:58:12;22.25;;;15.48;;
40286;SDS011;25998;46.604;13.610;2023-03-23T08:01:29;20.05;;;15.20;;
40286;SDS011;25998;46.604;13.610;2023-03-23T08:04:39;29.30;;;16.45;;
40286;SDS011;25998;46.604;13.610;2023-03-23T08:07:50;24.52;;;20.02;;
40286;SDS011;25998;46.604;13.610;2023-03-23T08:11:04;15.85;;;14.27;;
40286;SDS011;25998;46.604;13.610;2023-03-23T08:14:16;20.15;;;15.88;;
40286;SDS011;25998;46.604;13.610;2023-03-23T08:17:27;18.17;;;15.52;;
40286;SDS011;25998;46.604;13.610;2023-03-23T08:20:38;19.98;;;15.65;;
40286;SDS011;25998;46.604;13.610;2023-03-23T08:23:50;18.08;;;15.50;;
40286;SDS011;25998;46.604;13.610;2023-03-23T08:27:03;33.58;;;16.92;;
40286;SDS011;25998;46.604;13.610;2023-03-23T08:30:19;15.98;;;13.45;;
40286;SDS011;25998;46.604;13.610;2023-03-23T08:33:32;17.40;;;15.20;;
40286;SDS011;25998;46.604;13.610;2023-03-23T08:36:46;22.88;;;15.05;;
40286;SDS011;25998;46.604;13.610;2023-03-23T08:39:59;15.55;;;13.60;;
40286;SDS011;25998;46.604;13.610;2023-03-23T08:43:17;15.20;;;13.63;;
40286;SDS011;25998;46.604;13.610;2023-03-23T08:46:28;18.15;;;14.15;;
40286;SDS011;25998;46.604;13.610;2023-03-23T08:49:39;17.35;;;15.05;;
40286;SDS011;25998;46.604;13.610;2023-03-23T08:52:50;15.05;;;13.55;;
40286;SDS011;25998;46.604;13.610;2023-03-23T08:56:04;16.67;;;13.52;;
40286;SDS011;25998;46.604;13.610;2023-03-23T08:59:16;16.50;;;13.55;;
40286;SDS011;25998;46.604;13.610;2023-03-23T09:02:28;20.05;;;13.45;;
40286;SDS011;25998;46.604;13.610;2023-03-23T09:05:41;16.20;;;13.30;;
40286;SDS011;25998;46.604;13.610;2023-03-23T09:08:55;15.20;;;13.65;;
40286;SDS011;25998;46.604;13.610;2023-03-23T09:12:07;22.98;;;13.48;;
40286;SDS011;25998;46.604;13.610;2023-03-23T09:15:18;15.68;;;12.85;;
40286;SDS011;25998;46.604;13.610;2023-03-23T09:18:30;13.45;;;12.18;;
40286;SDS011;25998;46.604;13.610;2023-03-23T09:21:42;14.25;;;12.60;;
40286;SDS011;25998;46.604;13.610;2023-03-23T09:24:55;16.27;;;13.73;;
40286;SDS011;25998;46.604;13.610;2023-03-23T09:28:06;16.95;;;15.20;;
40286;SDS011;25998;46.604;13.610;2023-03-23T09:31:17;18.83;;;15.38;;
40286;SDS011;25998;46.604;13.610;2023-03-23T09:34:30;19.67;;;17.55;;
40286;SDS011;25998;46.604;13.610;2023-03-23T09:37:45;18.70;;;16.80;;
40286;SDS011;25998;46.604;13.610;2023-03-23T09:44:45;17.30;;;15.23;;
40286;SDS011;25998;46.604;13.610;2023-03-23T09:48:59;18.38;;;16.58;;
40286;SDS011;25998;46.604;13.610;2023-03-23T09:52:04;18.95;;;16.88;;
40286;SDS011;25998;46.604;13.610;2023-03-23T09:58:35;19.98;;;17.88;;
40286;SDS011;25998;46.604;13.610;2023-03-23T10:01:58;16.58;;;14.88;;
40286;SDS011;25998;46.604;13.610;2023-03-23T10:05:34;16.90;;;15.20;;
40286;SDS011;25998;46.604;13.610;2023-03-23T10:08:56;16.92;;;15.13;;
40286;SDS011;25998;46.604;13.610;2023-03-23T10:15:32;17.50;;;15.68;;
40286;SDS011;25998;46.604;13.610;2023-03-23T10:18:51;24.58;;;21.63;;
40286;SDS011;25998;46.604;13.610;2023-03-23T10:22:16;20.95;;;18.55;;
40286;SDS011;25998;46.604;13.610;2023-03-23T10:25:34;22.40;;;20.10;;
40286;SDS011;25998;46.604;13.610;2023-03-23T10:28:49;22.48;;;20.27;;
40286;SDS011;25998;46.604;13.610;2023-03-23T10:35:33;22.42;;;20.05;;
40286;SDS011;25998;46.604;13.610;2023-03-23T10:42:10;23.67;;;21.35;;
40286;SDS011;25998;46.604;13.610;2023-03-23T10:45:26;28.70;;;25.65;;
40286;SDS011;25998;46.604;13.610;2023-03-23T10:48:43;29.27;;;26.25;;
40286;SDS011;25998;46.604;13.610;2023-03-23T10:55:51;26.70;;;23.23;;
40286;SDS011;25998;46.604;13.610;2023-03-23T10:59:14;26.75;;;21.75;;
40286;SDS011;25998;46.604;13.610;2023-03-23T11:02:43;24.30;;;21.75;;
40286;SDS011;25998;46.604;13.610;2023-03-23T11:05:58;25.45;;;21.08;;
40286;SDS011;25998;46.604;13.610;2023-03-23T11:09:15;21.58;;;19.20;;
40286;SDS011;25998;46.604;13.610;2023-03-23T11:12:27;21.13;;;18.85;;
40286;SDS011;25998;46.604;13.610;2023-03-23T11:15:44;22.15;;;19.02;;
40286;SDS011;25998;46.604;13.610;2023-03-23T11:19:00;20.05;;;18.08;;
40286;SDS011;25998;46.604;13.610;2023-03-23T11:22:45;20.10;;;17.75;;
40286;SDS011;25998;46.604;13.610;2023-03-23T11:25:59;20.10;;;18.00;;
40286;SDS011;25998;46.604;13.610;2023-03-23T11:29:26;18.70;;;16.88;;
40286;SDS011;25998;46.604;13.610;2023-03-23T11:32:48;20.48;;;17.25;;
40286;SDS011;25998;46.604;13.610;2023-03-23T11:36:08;17.80;;;15.95;;
40286;SDS011;25998;46.604;13.610;2023-03-23T11:39:27;18.27;;;16.45;;
40286;SDS011;25998;46.604;13.610;2023-03-23T11:56:41;17.60;;;15.95;;
40286;SDS011;25998;46.604;13.610;2023-03-23T11:59:53;18.70;;;16.85;;
40286;SDS011;25998;46.604;13.610;2023-03-23T12:10:19;18.27;;;14.45;;
40286;SDS011;25998;46.604;13.610;2023-03-23T12:14:21;15.50;;;14.00;;
40286;SDS011;25998;46.604;13.610;2023-03-23T12:22:02;15.43;;;11.32;;
40286;SDS011;25998;46.604;13.610;2023-03-23T13:00:23;9.32;;;8.32;;
40286;SDS011;25998;46.604;13.610;2023-03-23T13:07:34;9.00;;;7.47;;
40286;SDS011;25998;46.604;13.610;2023-03-23T13:10:58;9.27;;;8.02;;
40286;SDS011;25998;46.604;13.610;2023-03-23T13:25:07;12.13;;;10.82;;
40286;SDS011;25998;46.604;13.610;2023-03-23T13:29:00;11.73;;;10.30;;
40286;SDS011;25998;46.604;13.610;2023-03-23T13:32:36;12.07;;;10.27;;
40286;SDS011;25998;46.604;13.610;2023-03-23T13:36:27;12.63;;;9.10;;
40286;SDS011;25998;46.604;13.610;2023-03-23T13:40:35;11.90;;;10.43;;
40286;SDS011;25998;46.604;13.610;2023-03-23T13:44:19;11.57;;;10.18;;
40286;SDS011;25998;46.604;13.610;2023-03-23T13:59:06;39.30;;;29.83;;
40286;SDS011;25998;46.604;13.610;2023-03-23T14:02:36;17.27;;;13.35;;
40286;SDS011;25998;46.604;13.610;2023-03-23T14:06:05;13.20;;;9.68;;
40286;SDS011;25998;46.604;13.610;2023-03-23T14:09:40;9.13;;;7.93;;
40286;SDS011;25998;46.604;13.610;2023-03-23T14:13:28;9.25;;;7.90;;
40286;SDS011;25998;46.604;13.610;2023-03-23T14:16:43;16.50;;;12.90;;
40286;SDS011;25998;46.604;13.610;2023-03-23T14:21:05;12.70;;;10.50;;
40286;SDS011;25998;46.604;13.610;2023-03-23T14:24:38;10.07;;;8.68;;
40286;SDS011;25998;46.604;13.610;2023-03-23T14:28:27;10.45;;;9.35;;
40286;SDS011;25998;46.604;13.610;2023-03-23T14:32:15;10.23;;;8.13;;
40286;SDS011;25998;46.604;13.610;2023-03-23T14:36:15;11.38;;;9.00;;
40286;SDS011;25998;46.604;13.610;2023-03-23T14:44:42;10.10;;;8.75;;
40286;SDS011;25998;46.604;13.610;2023-03-23T14:48:29;9.55;;;8.15;;
40286;SDS011;25998;46.604;13.610;2023-03-23T14:56:48;9.65;;;8.60;;
40286;SDS011;25998;46.604;13.610;2023-03-23T15:09:50;9.65;;;7.93;;
40286;SDS011;25998;46.604;13.610;2023-03-23T15:13:47;9.52;;;7.82;;
40286;SDS011;25998;46.604;13.610;2023-03-23T15:18:14;9.15;;;7.60;;
40286;SDS011;25998;46.604;13.610;2023-03-23T15:25:58;10.52;;;7.70;;
40286;SDS011;25998;46.604;13.610;2023-03-23T15:33:55;9.80;;;8.63;;
40286;SDS011;25998;46.604;13.610;2023-03-23T15:46:24;12.77;;;9.55;;
40286;SDS011;25998;46.604;13.610;2023-03-23T15:50:52;11.07;;;9.85;;
40286;SDS011;25998;46.604;13.610;2023-03-23T15:55:26;13.88;;;9.18;;
40286;SDS011;25998;46.604;13.610;2023-03-23T15:59:40;10.48;;;9.38;;
40286;SDS011;25998;46.604;13.610;2023-03-23T16:07:01;10.70;;;8.68;;
40286;SDS011;25998;46.604;13.610;2023-03-23T16:11:16;9.88;;;8.88;;
40286;SDS011;25998;46.604;13.610;2023-03-23T16:15:05;14.30;;;9.65;;
40286;SDS011;25998;46.604;13.610;2023-03-23T16:18:25;11.88;;;8.88;;
40286;SDS011;25998;46.604;13.610;2023-03-23T16:22:15;10.27;;;8.52;;
40286;SDS011;25998;46.604;13.610;2023-03-23T16:25:48;9.35;;;7.55;;
40286;SDS011;25998;46.604;13.610;2023-03-23T16:29:44;9.38;;;7.35;;
40286;SDS011;25998;46.604;13.610;2023-03-23T16:33:06;9.48;;;5.50;;
40286;SDS011;25998;46.604;13.610;2023-03-23T16:36:19;7.22;;;4.88;;
40286;SDS011;25998;46.604;13.610;2023-03-23T16:40:27;9.50;;;8.18;;
40286;SDS011;25998;46.604;13.610;2023-03-23T16:43:47;5.55;;;4.68;;
40286;SDS011;25998;46.604;13.610;2023-03-23T16:47:25;6.82;;;5.00;;
40286;SDS011;25998;46.604;13.610;2023-03-23T16:51:19;8.23;;;4.53;;
40286;SDS011;25998;46.604;13.610;2023-03-23T16:54:33;8.90;;;4.93;;
40286;SDS011;25998;46.604;13.610;2023-03-23T16:57:53;7.78;;;4.57;;
40286;SDS011;25998;46.604;13.610;2023-03-23T17:01:05;10.02;;;4.90;;
40286;SDS011;25998;46.604;13.610;2023-03-23T17:04:25;11.48;;;5.30;;
40286;SDS011;25998;46.604;13.610;2023-03-23T17:07:37;9.85;;;5.00;;
40286;SDS011;25998;46.604;13.610;2023-03-23T17:10:58;8.98;;;5.28;;
40286;SDS011;25998;46.604;13.610;2023-03-23T17:14:09;8.85;;;5.53;;
40286;SDS011;25998;46.604;13.610;2023-03-23T17:17:21;14.30;;;6.82;;
40286;SDS011;25998;46.604;13.610;2023-03-23T17:20:33;12.18;;;7.30;;
40286;SDS011;25998;46.604;13.610;2023-03-23T17:23:45;12.98;;;7.10;;
40286;SDS011;25998;46.604;13.610;2023-03-23T17:26:56;13.20;;;7.43;;
40286;SDS011;25998;46.604;13.610;2023-03-23T17:30:07;14.43;;;6.30;;
40286;SDS011;25998;46.604;13.610;2023-03-23T17:33:19;10.63;;;6.60;;
40286;SDS011;25998;46.604;13.610;2023-03-23T17:36:30;22.15;;;7.72;;
40286;SDS011;25998;46.604;13.610;2023-03-23T17:39:41;13.85;;;7.18;;
40286;SDS011;25998;46.604;13.610;2023-03-23T17:42:52;13.45;;;6.65;;
40286;SDS011;25998;46.604;13.610;2023-03-23T17:46:03;16.67;;;7.82;;
40286;SDS011;25998;46.604;13.610;2023-03-23T17:49:14;11.68;;;6.63;;
40286;SDS011;25998;46.604;13.610;2023-03-23T17:52:28;16.40;;;6.93;;
40286;SDS011;25998;46.604;13.610;2023-03-23T17:55:48;13.27;;;7.03;;
40286;SDS011;25998;46.604;13.610;2023-03-23T17:58:59;22.65;;;9.60;;
40286;SDS011;25998;46.604;13.610;2023-03-23T18:02:13;18.30;;;9.88;;
40286;SDS011;25998;46.604;13.610;2023-03-23T18:05:24;19.08;;;8.85;;
40286;SDS011;25998;46.604;13.610;2023-03-23T18:08:36;17.77;;;9.20;;
40286;SDS011;25998;46.604;13.610;2023-03-23T18:11:48;18.17;;;8.52;;
40286;SDS011;25998;46.604;13.610;2023-03-23T18:15:01;17.10;;;9.18;;
40286;SDS011;25998;46.604;13.610;2023-03-23T18:18:12;15.13;;;8.02;;
40286;SDS011;25998;46.604;13.610;2023-03-23T18:21:23;16.50;;;8.25;;
40286;SDS011;25998;46.604;13.610;2023-03-23T18:24:36;21.85;;;8.55;;
40286;SDS011;25998;46.604;13.610;2023-03-23T18:27:49;13.88;;;7.18;;
40286;SDS011;25998;46.604;13.610;2023-03-23T18:31:08;12.40;;;8.00;;
40286;SDS011;25998;46.604;13.610;2023-03-23T18:34:20;13.55;;;6.93;;
40286;SDS011;25998;46.604;13.610;2023-03-23T18:37:34;17.17;;;7.32;;
40286;SDS011;25998;46.604;13.610;2023-03-23T18:40:57;14.90;;;7.60;;
40286;SDS011;25998;46.604;13.610;2023-03-23T18:44:08;19.55;;;7.22;;
40286;SDS011;25998;46.604;13.610;2023-03-23T18:47:21;15.80;;;7.05;;
40286;SDS011;25998;46.604;13.610;2023-03-23T18:50:32;25.80;;;7.43;;
40286;SDS011;25998;46.604;13.610;2023-03-23T18:53:45;15.25;;;7.35;;
40286;SDS011;25998;46.604;13.610;2023-03-23T18:56:56;19.13;;;7.45;;
40286;SDS011;25998;46.604;13.610;2023-03-23T19:00:07;17.85;;;7.22;;
40286;SDS011;25998;46.604;13.610;2023-03-23T19:03:19;16.10;;;7.90;;
40286;SDS011;25998;46.604;13.610;2023-03-23T19:06:37;16.45;;;8.27;;
40286;SDS011;25998;46.604;13.610;2023-03-23T19:09:49;13.07;;;6.70;;
40286;SDS011;25998;46.604;13.610;2023-03-23T19:13:00;15.32;;;6.93;;
40286;SDS011;25998;46.604;13.610;2023-03-23T19:16:11;18.35;;;8.10;;
40286;SDS011;25998;46.604;13.610;2023-03-23T19:19:25;19.85;;;8.48;;
40286;SDS011;25998;46.604;13.610;2023-03-23T19:22:37;14.45;;;7.57;;
40286;SDS011;25998;46.604;13.610;2023-03-23T19:25:48;16.80;;;7.55;;
40286;SDS011;25998;46.604;13.610;2023-03-23T19:29:01;18.52;;;7.90;;
40286;SDS011;25998;46.604;13.610;2023-03-23T19:32:13;16.25;;;7.50;;
40286;SDS011;25998;46.604;13.610;2023-03-23T19:35:27;13.75;;;7.47;;
40286;SDS011;25998;46.604;13.610;2023-03-23T19:38:42;23.02;;;9.00;;
40286;SDS011;25998;46.604;13.610;2023-03-23T19:41:53;12.73;;;7.85;;
40286;SDS011;25998;46.604;13.610;2023-03-23T19:45:07;12.88;;;7.68;;
40286;SDS011;25998;46.604;13.610;2023-03-23T19:48:18;17.80;;;7.57;;
40286;SDS011;25998;46.604;13.610;2023-03-23T19:51:29;18.98;;;7.90;;
40286;SDS011;25998;46.604;13.610;2023-03-23T19:54:40;13.85;;;7.55;;
40286;SDS011;25998;46.604;13.610;2023-03-23T19:57:51;15.10;;;7.85;;
40286;SDS011;25998;46.604;13.610;2023-03-23T20:01:02;12.73;;;8.15;;
40286;SDS011;25998;46.604;13.610;2023-03-23T20:04:15;17.58;;;8.57;;
40286;SDS011;25998;46.604;13.610;2023-03-23T20:07:27;14.73;;;8.07;;
40286;SDS011;25998;46.604;13.610;2023-03-23T20:10:38;13.35;;;7.00;;
40286;SDS011;25998;46.604;13.610;2023-03-23T20:13:52;12.40;;;7.60;;
40286;SDS011;25998;46.604;13.610;2023-03-23T20:17:03;16.60;;;7.80;;
40286;SDS011;25998;46.604;13.610;2023-03-23T20:20:14;10.85;;;7.10;;
40286;SDS011;25998;46.604;13.610;2023-03-23T20:23:25;11.90;;;7.43;;
40286;SDS011;25998;46.604;13.610;2023-03-23T20:26:38;14.20;;;8.73;;
40286;SDS011;25998;46.604;13.610;2023-03-23T20:29:53;12.32;;;7.90;;
40286;SDS011;25998;46.604;13.610;2023-03-23T20:33:05;12.98;;;8.00;;
40286;SDS011;25998;46.604;13.610;2023-03-23T20:36:20;17.58;;;7.82;;
40286;SDS011;25998;46.604;13.610;2023-03-23T20:39:34;14.95;;;7.68;;
40286;SDS011;25998;46.604;13.610;2023-03-23T20:42:46;13.13;;;7.72;;
40286;SDS011;25998;46.604;13.610;2023-03-23T20:45:59;12.77;;;7.13;;
40286;SDS011;25998;46.604;13.610;2023-03-23T20:49:11;12.48;;;7.35;;
40286;SDS011;25998;46.604;13.610;2023-03-23T20:52:23;10.38;;;6.72;;
40286;SDS011;25998;46.604;13.610;2023-03-23T20:55:45;12.13;;;7.35;;
40286;SDS011;25998;46.604;13.610;2023-03-23T20:58:58;11.48;;;7.63;;
40286;SDS011;25998;46.604;13.610;2023-03-23T21:02:16;10.27;;;7.40;;
40286;SDS011;25998;46.604;13.610;2023-03-23T21:05:29;12.70;;;7.32;;
40286;SDS011;25998;46.604;13.610;2023-03-23T21:08:40;10.63;;;7.10;;
40286;SDS011;25998;46.604;13.610;2023-03-23T21:11:51;9.55;;;6.82;;
40286;SDS011;25998;46.604;13.610;2023-03-23T21:15:02;11.40;;;7.15;;
40286;SDS011;25998;46.604;13.610;2023-03-23T21:18:14;8.90;;;7.28;;
40286;SDS011;25998;46.604;13.610;2023-03-23T21:21:25;11.30;;;7.20;;
40286;SDS011;25998;46.604;13.610;2023-03-23T21:24:37;10.93;;;7.13;;
40286;SDS011;25998;46.604;13.610;2023-03-23T21:27:49;11.25;;;7.25;;
40286;SDS011;25998;46.604;13.610;2023-03-23T21:31:04;8.98;;;6.97;;
40286;SDS011;25998;46.604;13.610;2023-03-23T21:34:18;10.23;;;6.63;;
40286;SDS011;25998;46.604;13.610;2023-03-23T21:37:29;8.70;;;6.72;;
40286;SDS011;25998;46.604;13.610;2023-03-23T21:40:41;8.57;;;6.82;;
40286;SDS011;25998;46.604;13.610;2023-03-23T21:43:52;8.65;;;6.97;;
40286;SDS011;25998;46.604;13.610;2023-03-23T21:47:03;10.15;;;7.53;;
40286;SDS011;25998;46.604;13.610;2023-03-23T21:50:15;8.68;;;7.43;;
40286;SDS011;25998;46.604;13.610;2023-03-23T21:53:26;8.77;;;7.03;;
40286;SDS011;25998;46.604;13.610;2023-03-23T21:56:40;11.05;;;9.18;;